Morgan, Utah
Current Conditions -  °F | °C
As of 7:39 AM on Tuesday 21 Oct 2014 (Local Time) from KHIF Reporting Station
Light Rain Light Rain  
Wind Chill: 63°   Ceiling: 8500
Heat Index: 63°   Visibility: 10mi
Dew Point: 41°   Wind: 21mph
Humidity: 45%   Direction: 180°S
Pressure: 29.89"   Gusts: NA
Location:  41.04°N, 111.68°W
Report Text: KHIF 211339Z AUTO 18018KT 10SM -RA BKN085 OVC110 17/05 A2989 RMK AO2
Loading
Personal Weather Stations






























Interactive Weather Map
Tropical Storm Tracking
New forecast layout! Learn more

10-Day Weather Forecast

Advertisements
Track Severe Weather on mobile